Time;durP1;ratioP1;P1;durP2;ratioP2;P2;SDS_P1;SDS_P2;PMS_P1;PMS_P2;Temp;Humidity;BMP_temperature;BMP_pressure;BME280_temperature;BME280_humidity;BME280_pressure;Samples;Min_cycle;Max_cycle;Signal;HPM_P1;HPM_P2
2023/12/27 00:00:45;;;;;;;1.80;1.00;;;;;;;6.00;78.18;99873.17;110328;1231;1053246;-89
2023/12/27 00:05:36;;;;;;;2.40;0.80;;;;;;;6.00;78.27;99873.68;110351;1231;1016635;-89
2023/12/27 00:10:28;;;;;;;1.10;1.00;;;;;;;5.97;78.37;99877.41;110306;1230;1065202;-90
2023/12/27 00:15:19;;;;;;;2.90;1.20;;;;;;;5.94;78.50;99874.53;110284;1231;1016914;-89
2023/12/27 00:20:11;;;;;;;3.20;1.00;;;;;;;5.83;78.15;99891.16;110347;1230;1059538;-89
2023/12/27 00:25:03;;;;;;;1.10;1.00;;;;;;;5.72;77.47;99909.82;110380;1234;1016114;-89
2023/12/27 00:29:54;;;;;;;2.60;1.20;;;;;;;5.67;77.27;99910.58;110266;1234;1071793;-89
2023/12/27 00:34:48;;;;;;;0.80;0.60;;;;;;;5.67;76.86;99918.83;110492;1231;1016248;-89
2023/12/27 00:39:41;;;;;;;2.80;1.10;;;;;;;5.69;77.37;99925.23;110345;1231;1073698;-89
2023/12/27 00:44:32;;;;;;;1.30;1.00;;;;;;;5.70;77.30;99936.96;110558;1233;1016466;-88
2023/12/27 00:49:24;;;;;;;2.10;0.80;;;;;;;5.70;77.07;99947.44;110377;1231;1050981;-88
2023/12/27 00:54:15;;;;;;;1.60;1.10;;;;;;;5.65;76.84;99958.67;110447;1230;1016008;-89
2023/12/27 00:59:07;;;;;;;2.20;0.90;;;;;;;5.56;76.68;99971.84;110402;1231;1066237;-89
2023/12/27 01:03:59;;;;;;;1.30;0.80;;;;;;;5.48;76.38;99973.20;110355;1231;1016357;-90
2023/12/27 01:08:51;;;;;;;0.90;0.70;;;;;;;5.39;75.86;99981.90;110420;1231;1058277;-88
2023/12/27 01:13:42;;;;;;;1.20;0.60;;;;;;;5.35;75.38;99992.62;110498;1234;1016805;-88
2023/12/27 01:18:34;;;;;;;2.40;1.00;;;;;;;5.33;74.56;99993.95;110346;1234;1070300;-88
2023/12/27 01:23:25;;;;;;;1.60;0.90;;;;;;;5.32;74.23;100005.80;110471;1231;1016448;-89
2023/12/27 01:28:17;;;;;;;2.00;1.00;;;;;;;5.31;74.60;100015.55;110457;1231;1072295;-89
2023/12/27 01:33:09;;;;;;;1.40;1.00;;;;;;;5.29;74.34;100030.29;110387;1233;1017061;-88
2023/12/27 01:38:01;;;;;;;4.20;1.60;;;;;;;5.30;74.47;100039.95;110351;1230;1055773;-89
2023/12/27 01:42:52;;;;;;;1.20;0.90;;;;;;;5.32;74.60;100045.13;110440;1231;1018336;-88
2023/12/27 01:47:45;;;;;;;2.00;1.40;;;;;;;5.33;74.68;100056.00;110548;1230;1064554;-89
2023/12/27 01:52:40;;;;;;;2.10;1.30;;;;;;;5.32;74.86;100059.23;110502;1231;1016402;-88
2023/12/27 01:57:32;;;;;;;2.00;1.40;;;;;;;5.33;74.42;100059.77;110396;1230;1058871;-89
2023/12/27 02:02:25;;;;;;;3.20;1.20;;;;;;;5.28;74.39;100070.28;110459;1230;1016469;-89
2023/12/27 02:07:17;;;;;;;2.70;1.30;;;;;;;5.22;74.35;100082.16;110549;1233;1015949;-89
2023/12/27 02:12:26;;;;;;;1.90;1.10;;;;;;;5.20;74.45;100089.83;110441;1231;1051478;-89
2023/12/27 02:17:18;;;;;;;3.30;1.30;;;;;;;5.22;74.64;100085.90;110357;1231;1061411;-89
2023/12/27 02:22:15;;;;;;;2.40;1.20;;;;;;;5.24;74.82;100091.64;110583;1232;1016830;-88
2023/12/27 02:27:07;;;;;;;2.80;1.50;;;;;;;5.26;75.10;100092.21;110489;1232;1072803;-88
2023/12/27 02:31:58;;;;;;;2.40;1.60;;;;;;;5.24;75.33;100096.63;110417;1231;1016374;-88
2023/12/27 02:36:51;;;;;;;2.00;1.30;;;;;;;5.16;75.47;100110.14;110385;1231;1072726;-88
2023/12/27 02:41:44;;;;;;;1.30;1.10;;;;;;;5.09;75.39;100117.52;110352;1231;1016494;-89
2023/12/27 02:46:35;;;;;;;3.70;1.20;;;;;;;5.02;74.91;100117.13;110415;1230;1016241;-89
2023/12/27 02:51:26;;;;;;;3.70;1.20;;;;;;;4.92;74.38;100118.89;110325;1231;1061042;-88
2023/12/27 02:56:18;;;;;;;1.60;1.30;;;;;;;4.80;74.77;100126.92;110399;1234;1016332;-87
2023/12/27 03:01:11;;;;;;;2.00;1.00;;;;;;;4.68;74.75;100135.48;110525;1230;1073743;-89
2023/12/27 03:06:03;;;;;;;2.20;1.10;;;;;;;4.59;74.68;100138.80;110360;1231;1016398;-87
2023/12/27 03:10:56;;;;;;;1.90;1.30;;;;;;;4.50;74.59;100155.52;110527;1231;1072622;-87
2023/12/27 03:15:47;;;;;;;1.40;0.90;;;;;;;4.43;74.58;100153.91;110368;1234;1016221;-88
2023/12/27 03:20:38;;;;;;;1.30;0.80;;;;;;;4.35;74.37;100156.57;110410;1232;1050659;-89
2023/12/27 03:25:32;;;;;;;1.20;1.00;;;;;;;4.28;74.45;100160.95;110408;1231;1015959;-88
2023/12/27 03:30:24;;;;;;;1.40;1.20;;;;;;;4.21;74.56;100163.16;110359;1229;1065016;-87
2023/12/27 03:35:16;;;;;;;1.60;0.90;;;;;;;4.15;74.56;100169.64;110395;1234;1016064;-89
2023/12/27 03:40:09;;;;;;;5.00;1.20;;;;;;;4.10;74.74;100174.60;110325;1231;1058355;-89
2023/12/27 03:45:00;;;;;;;1.00;0.70;;;;;;;4.04;74.60;100192.41;110270;1231;1015793;-88
2023/12/27 03:49:53;;;;;;;2.50;1.10;;;;;;;3.98;74.55;100205.22;110514;1233;1016424;-88
2023/12/27 03:54:44;;;;;;;3.10;1.40;;;;;;;3.94;74.75;100218.14;110296;1231;1051073;-88
2023/12/27 03:59:37;;;;;;;2.90;1.10;;;;;;;3.95;74.94;100218.16;110460;1231;1016416;-88
2023/12/27 04:04:28;;;;;;;2.50;1.20;;;;;;;3.95;74.91;100216.80;110473;1231;1065550;-88
2023/12/27 04:09:20;;;;;;;4.80;3.10;;;;;;;3.94;75.20;100226.20;110377;1231;1018555;-89
2023/12/27 04:14:15;;;;;;;2.20;0.90;;;;;;;3.92;75.15;100232.30;110388;1231;1058747;-88
2023/12/27 04:19:07;;;;;;;4.70;1.30;;;;;;;3.87;75.47;100235.69;110319;1235;1073215;-88
2023/12/27 04:24:08;;;;;;;3.10;0.90;;;;;;;3.80;75.50;100241.83;110392;1231;1067456;-88
2023/12/27 04:29:03;;;;;;;2.80;1.80;;;;;;;3.73;75.82;100250.64;110310;1233;1071455;-88
2023/12/27 04:33:55;;;;;;;2.00;0.80;;;;;;;3.68;76.16;100256.77;110397;1232;1016482;-89
2023/12/27 04:38:52;;;;;;;2.90;0.90;;;;;;;3.71;76.13;100259.98;110386;1231;1073145;-90
2023/12/27 04:43:44;;;;;;;4.60;1.20;;;;;;;3.78;76.34;100269.86;110386;1231;1016269;-87
2023/12/27 04:48:36;;;;;;;2.20;0.90;;;;;;;3.84;76.25;100272.30;110415;1234;1018258;-89
2023/12/27 04:53:28;;;;;;;2.40;0.80;;;;;;;3.89;76.25;100281.05;110343;1232;1061175;-89
2023/12/27 04:58:21;;;;;;;4.70;1.50;;;;;;;3.94;76.02;100290.14;110427;1234;1018589;-88
2023/12/27 05:03:13;;;;;;;2.90;0.80;;;;;;;3.98;75.95;100297.34;110489;1230;1071243;-88
2023/12/27 05:08:05;;;;;;;2.00;0.90;;;;;;;4.01;75.88;100298.48;110386;1231;1016404;-89
2023/12/27 05:12:58;;;;;;;4.30;1.10;;;;;;;4.03;75.73;100303.66;110431;1231;1072173;-89
2023/12/27 05:17:50;;;;;;;2.20;1.20;;;;;;;4.04;75.78;100311.77;110346;1232;1016299;-88
2023/12/27 05:22:42;;;;;;;3.00;1.10;;;;;;;4.04;75.77;100320.52;110372;1231;1018472;-89
2023/12/27 05:27:33;;;;;;;2.90;1.10;;;;;;;4.06;75.88;100323.02;110356;1231;1058171;-88
2023/12/27 05:32:25;;;;;;;1.40;0.80;;;;;;;4.07;75.91;100329.05;110446;1234;1016106;-87
2023/12/27 05:37:17;;;;;;;5.40;1.10;;;;;;;4.08;75.78;100327.85;110292;1231;1072989;-88
2023/12/27 05:42:09;;;;;;;5.20;1.60;;;;;;;4.08;75.76;100345.22;110435;1230;1016128;-87
2023/12/27 05:47:02;;;;;;;4.60;1.80;;;;;;;4.11;75.86;100359.70;110327;1231;1075966;-88
2023/12/27 05:51:53;;;;;;;3.90;1.50;;;;;;;4.12;75.94;100363.89;110346;1231;1016283;-89
2023/12/27 05:56:45;;;;;;;4.00;1.60;;;;;;;4.12;75.92;100380.68;110360;1231;1016570;-88
2023/12/27 06:01:36;;;;;;;5.50;1.80;;;;;;;4.12;75.82;100388.08;110523;1231;1057896;-88
2023/12/27 06:06:28;;;;;;;3.30;1.10;;;;;;;4.12;75.72;100396.64;110437;1232;1018595;-88
2023/12/27 06:11:19;;;;;;;1.30;0.90;;;;;;;4.11;75.97;100404.33;110363;1231;1070940;-88
2023/12/27 06:16:11;;;;;;;3.50;1.50;;;;;;;4.11;76.01;100408.25;110565;1235;1018485;-89
2023/12/27 06:21:03;;;;;;;5.70;1.30;;;;;;;4.10;75.88;100413.37;110383;1231;1072774;-89
2023/12/27 06:25:55;;;;;;;6.40;1.50;;;;;;;4.09;76.15;100423.63;110442;1234;1017987;-89
2023/12/27 06:30:47;;;;;;;2.80;1.30;;;;;;;4.07;75.98;100423.55;110449;1231;1053147;-87
2023/12/27 06:35:38;;;;;;;6.60;1.90;;;;;;;4.05;76.02;100433.27;110494;1231;1016105;-88
2023/12/27 06:40:30;;;;;;;5.50;1.40;;;;;;;4.02;75.84;100432.96;110490;1232;1065149;-88
2023/12/27 06:45:21;;;;;;;3.90;1.30;;;;;;;3.96;76.03;100455.03;110486;1232;1016341;-89
2023/12/27 06:50:13;;;;;;;4.60;1.80;;;;;;;3.93;76.25;100472.55;110496;1232;1060667;-87
2023/12/27 06:55:05;;;;;;;7.20;1.80;;;;;;;3.90;76.36;100481.70;110471;1234;1016454;-88
2023/12/27 06:59:56;;;;;;;3.90;1.30;;;;;;;3.85;76.36;100489.23;110460;1232;1070594;-88
2023/12/27 07:04:48;;;;;;;5.60;1.50;;;;;;;3.81;76.40;100495.43;110444;1231;1016175;-88
2023/12/27 07:09:40;;;;;;;9.10;1.60;;;;;;;3.79;76.42;100498.77;110509;1231;1072121;-88
2023/12/27 07:14:31;;;;;;;4.70;1.70;;;;;;;3.73;76.47;100500.57;110570;1234;1016101;-88
2023/12/27 07:19:23;;;;;;;4.00;1.90;;;;;;;3.64;76.52;100511.52;110389;1232;1050234;-87
2023/12/27 07:24:14;;;;;;;5.50;2.60;;;;;;;3.57;76.50;100523.05;110471;1232;1016358;-87
2023/12/27 07:29:06;;;;;;;4.70;1.90;;;;;;;3.54;76.53;100543.66;110516;1232;1068355;-88
2023/12/27 07:33:57;;;;;;;3.60;1.90;;;;;;;3.53;76.58;100559.73;110558;1230;1016241;-88
2023/12/27 07:38:48;;;;;;;6.60;1.70;;;;;;;3.60;76.68;100576.98;110506;1231;1057326;-86
2023/12/27 07:43:41;;;;;;;2.70;1.70;;;;;;;3.74;76.39;100585.98;110561;1234;1016021;-88
2023/12/27 07:48:33;;;;;;;8.30;1.90;;;;;;;3.82;76.25;100601.91;110476;1232;1073021;-87
2023/12/27 07:53:25;;;;;;;3.90;1.70;;;;;;;3.91;75.95;100603.83;110383;1232;1016225;-88
2023/12/27 07:58:17;;;;;;;5.60;2.00;;;;;;;3.99;75.84;100607.77;110457;1232;1072580;-88
2023/12/27 08:03:09;;;;;;;4.80;2.90;;;;;;;4.05;75.76;100620.56;110410;1234;1015893;-87
2023/12/27 08:08:03;;;;;;;6.70;2.80;;;;;;;4.11;75.72;100628.89;110401;1232;1051450;-87
2023/12/27 08:12:54;;;;;;;3.70;1.90;;;;;;;4.16;75.85;100643.16;110488;1230;1015959;-87
2023/12/27 08:17:45;;;;;;;5.60;1.90;;;;;;;4.18;76.07;100652.48;110517;1232;1016280;-81
2023/12/27 08:22:37;;;;;;;5.00;1.70;;;;;;;4.21;76.08;100664.29;110536;1234;1071732;-89
2023/12/27 08:27:28;;;;;;;4.40;2.20;;;;;;;4.26;76.05;100678.05;110566;1234;1015504;-86
2023/12/27 08:32:20;;;;;;;5.50;2.20;;;;;;;4.28;75.81;100681.90;110493;1232;1072345;-87
2023/12/27 08:37:11;;;;;;;7.30;2.10;;;;;;;4.32;76.01;100691.85;110557;1234;1016577;-87
2023/12/27 08:42:03;;;;;;;3.10;2.30;;;;;;;4.40;75.87;100701.06;110514;1232;1051013;-90
2023/12/27 08:46:55;;;;;;;6.10;2.60;;;;;;;4.45;75.86;100716.40;110470;1231;1016417;-82
2023/12/27 08:51:46;;;;;;;8.30;2.60;;;;;;;4.43;75.70;100727.67;110463;1232;1064868;-82
2023/12/27 08:56:38;;;;;;;5.70;2.10;;;;;;;4.42;75.73;100732.60;110510;1232;1016114;-84
2023/12/27 09:01:31;;;;;;;5.60;2.00;;;;;;;4.41;75.78;100742.00;110513;1232;1061160;-84
2023/12/27 09:06:23;;;;;;;6.20;2.80;;;;;;;4.39;75.79;100748.79;110448;1232;1016049;-84
2023/12/27 09:11:16;;;;;;;5.30;2.30;;;;;;;4.37;75.81;100755.70;110506;1234;1015995;-85
2023/12/27 09:16:27;;;;;;;5.90;1.90;;;;;;;4.37;75.56;100756.91;110441;1232;1051407;-85
2023/12/27 09:21:19;;;;;;;6.20;2.40;;;;;;;4.36;75.60;100773.88;110462;1232;1015974;-85
2023/12/27 09:26:13;;;;;;;7.30;2.70;;;;;;;4.37;75.53;100778.90;110538;1232;1067606;-86
2023/12/27 09:31:05;;;;;;;5.90;2.30;;;;;;;4.40;75.73;100785.73;110459;1230;1073200;-81
2023/12/27 09:35:56;;;;;;;7.70;3.20;;;;;;;4.43;75.70;100778.28;110549;1231;1016253;-79
2023/12/27 09:40:48;;;;;;;4.70;2.30;;;;;;;4.47;75.72;100787.20;110376;1230;1075611;-79
2023/12/27 09:45:41;;;;;;;6.10;2.30;;;;;;;4.51;75.59;100786.38;110467;1234;1018203;-81
2023/12/27 09:50:34;;;;;;;8.00;2.10;;;;;;;4.60;75.33;100788.95;110395;1232;1051236;-79
2023/12/27 09:55:26;;;;;;;7.00;2.80;;;;;;;4.69;75.19;100793.61;110505;1234;1016707;-81
2023/12/27 10:00:20;;;;;;;8.70;3.00;;;;;;;4.74;74.89;100802.79;110459;1232;1015691;-82
2023/12/27 10:05:19;;;;;;;8.30;2.70;;;;;;;4.86;74.79;100797.41;110491;1232;1070841;-80
2023/12/27 10:15:29;;;;;;;8.60;2.20;;;;;;;4.98;74.59;100803.21;109928;1237;1058714;-81
2023/12/27 10:20:36;;;;;;;5.90;2.10;;;;;;;5.04;74.53;100810.16;109967;1237;1017418;-78
2023/12/27 10:25:29;;;;;;;3.20;2.10;;;;;;;5.10;74.36;100810.77;109876;1237;1071624;-83
2023/12/27 10:30:21;;;;;;;6.50;2.60;;;;;;;5.19;73.94;100812.34;109729;1237;1018819;-82
2023/12/27 10:35:13;;;;;;;7.40;2.30;;;;;;;5.22;74.03;100814.01;109750;1238;1016328;-81
2023/12/27 10:40:05;;;;;;;6.20;1.90;;;;;;;5.34;73.80;100805.73;109836;1240;1070820;-85
2023/12/27 10:44:57;;;;;;;6.40;2.00;;;;;;;5.39;73.48;100807.98;110098;1231;1017122;-83
2023/12/27 10:49:48;;;;;;;6.30;2.40;;;;;;;5.41;73.37;100819.73;110568;1230;1018648;-83
2023/12/27 10:54:44;;;;;;;8.60;2.60;;;;;;;5.47;73.25;100815.67;110555;1231;1073566;-84
2023/12/27 10:59:36;;;;;;;9.60;2.70;;;;;;;5.47;73.25;100826.16;110547;1231;1066555;-83
2023/12/27 11:04:28;;;;;;;3.30;1.90;;;;;;;5.41;73.16;100831.41;110534;1230;1016316;-83
2023/12/27 11:09:23;;;;;;;7.60;2.60;;;;;;;5.38;73.25;100829.58;110533;1230;1059262;-83
2023/12/27 11:14:19;;;;;;;5.00;2.10;;;;;;;5.39;73.33;100829.98;110455;1231;1015958;-83
2023/12/27 11:19:11;;;;;;;5.30;2.00;;;;;;;5.41;73.15;100833.66;110330;1233;1068038;-83
2023/12/27 11:24:04;;;;;;;8.20;2.70;;;;;;;5.40;73.20;100837.58;110464;1232;1015966;-84
2023/12/27 11:28:55;;;;;;;8.10;2.60;;;;;;;5.39;73.04;100841.83;110389;1231;1058290;-83
2023/12/27 11:33:47;;;;;;;8.20;3.10;;;;;;;5.37;73.00;100851.21;110486;1234;1015944;-83
2023/12/27 11:38:39;;;;;;;7.70;2.30;;;;;;;5.32;73.07;100847.77;110236;1231;1071219;-83
2023/12/27 11:43:52;;;;;;;7.90;2.20;;;;;;;5.32;72.99;100847.41;110484;1232;1016088;-83
2023/12/27 11:48:43;;;;;;;6.70;2.80;;;;;;;5.27;72.61;100860.30;110492;1234;1059248;-83
2023/12/27 11:53:35;;;;;;;5.90;2.60;;;;;;;5.28;72.71;100865.31;110552;1230;1015637;-83
2023/12/27 11:58:35;;;;;;;9.80;2.30;;;;;;;5.29;72.67;100860.05;110518;1234;1069219;-83
2023/12/27 12:03:36;;;;;;;8.60;2.50;;;;;;;5.31;72.70;100865.42;110514;1231;1051756;-84
2023/12/27 12:08:34;;;;;;;5.40;2.60;;;;;;;5.33;72.56;100876.50;110483;1231;1058106;-84
2023/12/27 12:13:25;;;;;;;4.60;2.60;;;;;;;5.38;72.40;100871.35;110490;1234;1074704;-84
2023/12/27 12:18:17;;;;;;;7.70;2.80;;;;;;;5.42;71.88;100878.92;110518;1234;1016076;-83
2023/12/27 12:23:10;;;;;;;7.40;2.80;;;;;;;5.52;71.86;100888.27;110477;1230;1051123;-83
2023/12/27 12:28:01;;;;;;;8.60;2.70;;;;;;;5.61;71.87;100889.50;110486;1230;1016949;-83
2023/12/27 12:32:54;;;;;;;6.10;2.70;;;;;;;5.64;71.74;100886.34;110523;1232;1016213;-83
2023/12/27 12:37:46;;;;;;;9.50;2.70;;;;;;;5.55;71.47;100885.65;110492;1233;1070164;-83
2023/12/27 12:42:39;;;;;;;8.50;3.20;;;;;;;5.43;71.73;100897.69;110512;1230;1015827;-83
2023/12/27 12:47:30;;;;;;;6.90;3.20;;;;;;;5.34;72.07;100901.66;110519;1231;1077614;-83
2023/12/27 12:52:22;;;;;;;6.30;2.90;;;;;;;5.32;72.38;100909.63;110520;1233;1018748;-82
2023/12/27 12:57:13;;;;;;;6.20;3.00;;;;;;;5.38;72.03;100904.35;110493;1232;1050384;-84
2023/12/27 13:08:18;;;;;;;4.50;2.40;;;;;;;5.40;71.85;100894.30;110144;1237;1065003;-83
2023/12/27 13:13:33;;;;;;;4.90;2.30;;;;;;;5.41;71.88;100890.06;110160;1234;1069666;-83
2023/12/27 13:19:11;;;;;;;9.30;3.10;;;;;;;5.32;71.75;100893.67;110152;1234;1050665;-83
2023/12/27 13:24:08;;;;;;;9.50;3.20;;;;;;;5.23;71.60;100899.09;110204;1235;1059519;-80
2023/12/27 13:35:12;;;;;;;7.30;3.00;;;;;;;5.16;71.79;100906.23;109872;1235;1071247;-81
2023/12/27 13:40:34;;;;;;;10.30;3.20;;;;;;;5.06;71.88;100912.16;109969;1239;1051266;-81
2023/12/27 13:46:47;;;;;;;11.00;3.30;;;;;;;4.86;71.85;100924.20;109886;1235;1058465;-84
2023/12/27 13:58:47;;;;;;;7.60;3.40;;;;;;;4.38;72.15;100951.61;109883;1238;1068988;-80
2023/12/27 14:03:49;;;;;;;7.20;3.80;;;;;;;4.26;72.65;100959.77;109898;1239;1071867;-79
2023/12/27 14:08:46;;;;;;;8.00;4.00;;;;;;;4.21;72.93;100968.16;110273;1231;1017983;-79
2023/12/27 14:13:42;;;;;;;9.80;3.60;;;;;;;4.17;73.06;100971.06;110527;1230;1074830;-80
2023/12/27 14:18:33;;;;;;;6.00;3.00;;;;;;;4.16;73.10;100972.21;110574;1234;1015847;-85
2023/12/27 14:23:25;;;;;;;7.10;3.20;;;;;;;4.14;73.15;100970.36;110533;1230;1051365;-87
2023/12/27 14:28:17;;;;;;;5.90;3.50;;;;;;;4.12;73.08;100972.34;110512;1230;1016508;-80
2023/12/27 14:33:08;;;;;;;9.20;3.40;;;;;;;4.11;73.18;100976.59;110570;1230;1065374;-81
2023/12/27 14:38:00;;;;;;;8.70;4.00;;;;;;;4.07;73.11;100977.27;110530;1234;1016283;-81
2023/12/27 14:42:52;;;;;;;8.80;4.70;;;;;;;4.03;73.22;100982.57;110408;1231;1057261;-81
2023/12/27 14:47:44;;;;;;;6.30;3.90;;;;;;;4.00;73.42;100981.23;110558;1234;1016367;-78
2023/12/27 14:52:38;;;;;;;6.40;4.20;;;;;;;3.99;73.38;100989.23;110366;1233;1070462;-78
2023/12/27 14:57:29;;;;;;;9.70;3.80;;;;;;;3.96;73.31;100992.02;110341;1231;1018953;-79
2023/12/27 15:02:21;;;;;;;8.10;4.40;;;;;;;3.95;73.62;100995.20;110450;1231;1018656;-79
2023/12/27 15:07:12;;;;;;;8.70;3.80;;;;;;;3.93;73.45;100987.05;110433;1231;1065571;-83
2023/12/27 15:12:04;;;;;;;5.80;3.40;;;;;;;3.90;73.33;100987.42;110410;1231;1016368;-81
2023/12/27 15:16:56;;;;;;;8.10;3.90;;;;;;;3.86;73.44;100986.21;110520;1231;1057964;-85
2023/12/27 15:21:47;;;;;;;9.60;4.40;;;;;;;3.80;73.37;100998.09;110556;1231;1016394;-81
2023/12/27 15:26:40;;;;;;;7.60;4.40;;;;;;;3.73;73.27;101008.04;110565;1232;1071584;-81
2023/12/27 15:31:58;;;;;;;5.50;3.60;;;;;;;3.69;73.63;101018.50;110353;1233;1016223;-78
2023/12/27 15:37:27;;;;;;;9.10;4.20;;;;;;;3.64;73.48;101022.16;110413;1231;1058036;-83
2023/12/27 15:48:36;;;;;;;8.90;4.90;;;;;;;3.61;73.75;101030.78;109805;1236;1068230;-80
2023/12/27 15:54:25;;;;;;;12.90;5.50;;;;;;;3.62;73.80;101034.26;109678;1237;1073618;-80
2023/12/27 16:48:58;;;;;;;16.80;6.50;;;;;;;3.31;74.56;101061.66;109136;1244;1064870;-82
2023/12/27 17:12:19;;;;;;;9.80;5.90;;;;;;;3.04;75.26;101070.55;109209;1243;1072885;-80
2023/12/27 17:17:53;;;;;;;10.30;7.20;;;;;;;2.99;75.41;101073.67;109255;1244;1065486;-80
2023/12/27 17:46:28;;;;;;;12.10;7.00;;;;;;;2.64;76.07;101085.84;109832;1237;1065561;-81
2023/12/27 17:51:47;;;;;;;8.90;5.40;;;;;;;2.55;76.46;101089.64;109840;1236;1071222;-81
2023/12/27 17:56:39;;;;;;;13.30;5.50;;;;;;;2.47;76.50;101089.04;109935;1236;1016829;-81
2023/12/27 18:01:30;;;;;;;12.50;6.90;;;;;;;2.40;76.64;101085.20;109886;1236;1073265;-80
2023/12/27 18:06:23;;;;;;;10.70;6.60;;;;;;;2.34;76.82;101075.46;110562;1233;1016195;-81
2023/12/27 18:11:15;;;;;;;14.90;7.30;;;;;;;2.27;76.85;101074.41;110475;1231;1050619;-81
2023/12/27 18:16:08;;;;;;;18.20;7.80;;;;;;;2.22;77.11;101074.81;110507;1231;1015775;-81
2023/12/27 18:20:59;;;;;;;11.90;6.90;;;;;;;2.17;76.82;101077.75;110488;1230;1065594;-80
2023/12/27 18:25:51;;;;;;;13.20;7.20;;;;;;;2.10;76.91;101073.77;110523;1230;1016382;-80
2023/12/27 18:30:43;;;;;;;11.10;7.10;;;;;;;2.02;77.07;101075.02;110358;1231;1058457;-80
2023/12/27 18:35:34;;;;;;;16.40;7.40;;;;;;;1.96;77.06;101078.27;110476;1231;1016209;-80
2023/12/27 18:40:26;;;;;;;13.50;7.80;;;;;;;1.87;77.15;101083.41;110403;1230;1070875;-79
2023/12/27 18:45:32;;;;;;;20.20;7.30;;;;;;;1.76;77.37;101090.81;110479;1229;1018781;-79
2023/12/27 18:56:18;;;;;;;15.10;6.40;;;;;;;1.49;77.65;101099.15;109972;1237;1065419;-79
2023/12/27 19:01:12;;;;;;;15.30;7.90;;;;;;;1.41;77.44;101106.52;109830;1239;1016438;-79
2023/12/27 19:06:05;;;;;;;9.00;5.90;;;;;;;1.27;77.56;101113.02;109941;1238;1016103;-79
2023/12/27 19:10:56;;;;;;;8.10;5.90;;;;;;;1.13;77.65;101122.57;110045;1235;1016376;-81
2023/12/27 19:15:48;;;;;;;13.30;7.30;;;;;;;1.01;77.83;101119.42;109970;1238;1016413;-76
2023/12/27 19:20:39;;;;;;;11.40;7.30;;;;;;;0.92;78.03;101111.90;109857;1237;1070844;-74
2023/12/27 19:25:31;;;;;;;14.30;6.70;;;;;;;0.82;77.80;101118.27;109933;1237;1016161;-75
2023/12/27 19:30:22;;;;;;;15.80;8.70;;;;;;;0.69;77.74;101120.71;109850;1231;1073044;-75
2023/12/27 19:35:15;;;;;;;12.70;8.50;;;;;;;0.57;78.09;101121.29;110417;1230;1016454;-74
2023/12/27 19:40:07;;;;;;;11.60;7.70;;;;;;;0.47;78.24;101119.98;110450;1230;1051220;-74
2023/12/27 19:44:59;;;;;;;15.20;8.50;;;;;;;0.38;78.09;101117.71;110503;1231;1016277;-74
2023/12/27 19:49:50;;;;;;;12.60;7.70;;;;;;;0.31;78.32;101136.53;110457;1234;1016144;-75
2023/12/27 19:54:43;;;;;;;15.00;7.60;;;;;;;0.17;78.21;101147.20;110221;1231;1069794;-74
2023/12/27 19:59:38;;;;;;;11.90;8.30;;;;;;;0.11;78.68;101144.63;110459;1231;1017086;-74
2023/12/27 20:04:30;;;;;;;11.70;7.50;;;;;;;0.07;78.81;101133.92;110419;1230;1072999;-74
2023/12/27 20:09:21;;;;;;;12.30;8.20;;;;;;;-0.02;78.56;101133.35;110517;1234;1017687;-74
2023/12/27 20:14:13;;;;;;;13.10;8.40;;;;;;;-0.11;78.56;101128.52;110401;1231;1050913;-74
2023/12/27 20:19:04;;;;;;;14.90;8.60;;;;;;;-0.19;78.33;101120.11;110471;1230;1015698;-74
2023/12/27 20:23:56;;;;;;;12.60;8.90;;;;;;;-0.27;78.67;101127.91;110284;1231;1064179;-74
2023/12/27 20:28:48;;;;;;;18.60;8.70;;;;;;;-0.29;78.89;101131.08;110461;1231;1016105;-74
2023/12/27 20:33:39;;;;;;;16.00;9.00;;;;;;;-0.33;78.98;101136.55;110550;1231;1058235;-74
2023/12/27 20:38:31;;;;;;;14.20;10.30;;;;;;;-0.42;78.82;101143.65;110531;1231;1015821;-74
2023/12/27 20:43:23;;;;;;;19.20;11.10;;;;;;;-0.51;78.97;101146.11;110415;1230;1070445;-74
2023/12/27 20:48:16;;;;;;;18.10;11.10;;;;;;;-0.57;79.14;101138.52;110461;1230;1016379;-74
2023/12/27 20:53:07;;;;;;;13.90;9.60;;;;;;;-0.63;79.16;101139.14;110418;1230;1015902;-74
2023/12/27 20:57:59;;;;;;;17.70;10.20;;;;;;;-0.69;79.36;101141.98;110484;1234;1015774;-74
2023/12/27 21:02:51;;;;;;;14.80;11.50;;;;;;;-0.70;79.54;101141.21;110428;1234;1070163;-74
2023/12/27 21:07:43;;;;;;;25.50;15.80;;;;;;;-0.76;79.30;101142.54;110471;1234;1016790;-74
2023/12/27 21:12:37;;;;;;;28.30;17.30;;;;;;;-0.80;79.50;101135.94;110366;1230;1075855;-75
2023/12/27 21:17:28;;;;;;;31.50;19.00;;;;;;;-0.84;79.53;101146.20;110400;1231;1018908;-75
2023/12/27 21:22:20;;;;;;;35.40;19.80;;;;;;;-0.89;79.60;101131.88;110424;1234;1017518;-75
2023/12/27 21:27:11;;;;;;;29.80;21.40;;;;;;;-0.93;79.79;101115.42;110466;1230;1057904;-75
2023/12/27 21:32:03;;;;;;;30.70;21.00;;;;;;;-0.95;80.05;101109.38;110499;1231;1016402;-75
2023/12/27 21:36:55;;;;;;;34.20;18.40;;;;;;;-0.97;79.97;101109.59;110214;1231;1071421;-76
2023/12/27 21:41:46;;;;;;;26.80;17.40;;;;;;;-0.98;80.12;101102.55;110376;1231;1016411;-75
2023/12/27 21:46:39;;;;;;;24.80;16.70;;;;;;;-0.98;80.14;101098.44;110448;1234;1071409;-75
2023/12/27 21:51:32;;;;;;;23.10;16.50;;;;;;;-1.01;80.15;101085.48;110424;1231;1018475;-75
2023/12/27 21:56:25;;;;;;;27.90;14.80;;;;;;;-1.03;80.17;101081.77;110484;1231;1016815;-75
2023/12/27 22:01:17;;;;;;;30.30;19.00;;;;;;;-1.08;80.11;101081.90;110477;1230;1058312;-75
2023/12/27 22:06:10;;;;;;;25.30;15.70;;;;;;;-1.11;80.00;101077.80;110507;1230;1016135;-75
2023/12/27 22:11:02;;;;;;;25.50;15.90;;;;;;;-1.17;79.82;101083.35;110451;1231;1073231;-75
2023/12/27 22:15:54;;;;;;;31.00;17.70;;;;;;;-1.23;80.21;101087.17;110466;1231;1016195;-75
2023/12/27 22:20:53;;;;;;;23.40;16.00;;;;;;;-1.25;80.32;101091.27;110417;1231;1072578;-75
2023/12/27 22:25:46;;;;;;;28.20;18.30;;;;;;;-1.29;80.16;101092.34;110507;1234;1016313;-75
2023/12/27 22:30:37;;;;;;;31.60;18.40;;;;;;;-1.33;80.08;101095.32;110425;1231;1050686;-75
2023/12/27 22:35:32;;;;;;;32.50;19.90;;;;;;;-1.35;80.31;101106.44;110530;1233;1016420;-75
2023/12/27 22:40:23;;;;;;;33.80;21.20;;;;;;;-1.30;80.55;101090.44;110335;1231;1064631;-75
2023/12/27 22:45:15;;;;;;;36.10;20.10;;;;;;;-1.21;80.86;101084.29;110484;1231;1016166;-76
2023/12/27 22:50:07;;;;;;;32.70;18.40;;;;;;;-1.12;81.03;101082.52;110462;1231;1057790;-76
2023/12/27 22:54:58;;;;;;;37.00;21.50;;;;;;;-1.06;80.91;101081.55;110488;1234;1016103;-76
2023/12/27 22:59:50;;;;;;;38.70;21.20;;;;;;;-1.00;80.96;101062.26;110441;1230;1073544;-76
2023/12/27 23:04:41;;;;;;;37.00;21.10;;;;;;;-0.91;81.23;101045.16;110505;1232;1016424;-75
2023/12/27 23:09:34;;;;;;;38.00;21.70;;;;;;;-0.81;81.26;101043.09;110429;1230;1072278;-75
2023/12/27 23:14:26;;;;;;;37.20;22.50;;;;;;;-0.74;81.52;101032.85;110512;1234;1019179;-75
2023/12/27 23:19:17;;;;;;;39.80;23.60;;;;;;;-0.62;81.78;101029.40;110336;1231;1053839;-75
2023/12/27 23:24:09;;;;;;;36.50;20.20;;;;;;;-0.53;81.63;101035.63;110519;1231;1016454;-75
2023/12/27 23:29:02;;;;;;;34.00;21.70;;;;;;;-0.48;81.96;101036.33;110449;1231;1065492;-75
2023/12/27 23:33:53;;;;;;;34.20;21.10;;;;;;;-0.43;81.86;101020.59;110367;1235;1016452;-76
2023/12/27 23:38:45;;;;;;;33.90;19.90;;;;;;;-0.37;82.14;100988.44;110423;1234;1058229;-75
2023/12/27 23:43:37;;;;;;;31.10;20.40;;;;;;;-0.35;82.18;100986.70;110531;1234;1016444;-75
2023/12/27 23:48:28;;;;;;;36.20;20.00;;;;;;;-0.40;82.01;100990.52;110424;1231;1073648;-76
2023/12/27 23:53:20;;;;;;;32.20;18.70;;;;;;;-0.45;82.22;100997.48;110435;1230;1015983;-75
2023/12/27 23:58:12;;;;;;;43.00;20.20;;;;;;;-0.45;82.52;100998.20;110218;1234;1072973;-75
